createdAt,value
2022-10-23T00:01:45.649Z,14.50
2022-10-23T00:04:25.490Z,14.50
2022-10-23T00:06:53.695Z,14.20
2022-10-23T00:09:24.341Z,14.30
2022-10-23T00:11:53.082Z,14.50
2022-10-23T00:14:23.782Z,13.70
2022-10-23T00:16:52.175Z,14.30
2022-10-23T00:19:20.145Z,13.20
2022-10-23T00:21:48.300Z,14.70
2022-10-23T00:24:16.320Z,13.60
2022-10-23T00:26:44.347Z,12.80
2022-10-23T00:29:12.614Z,13.10
2022-10-23T00:31:40.651Z,13.30
2022-10-23T00:34:09.151Z,13.60
2022-10-23T00:36:37.670Z,13.90
2022-10-23T00:39:06.845Z,14.10
2022-10-23T00:41:35.151Z,14.00
2022-10-23T00:44:05.808Z,15.40
2022-10-23T00:46:36.112Z,13.70
2022-10-23T00:49:06.016Z,13.90
2022-10-23T00:51:42.840Z,15.00
2022-10-23T00:54:29.412Z,14.10
2022-10-23T00:57:00.416Z,14.80
2022-10-23T00:59:30.144Z,15.10
2022-10-23T01:01:59.753Z,14.10
2022-10-23T01:04:31.075Z,14.90
2022-10-23T01:07:13.251Z,15.20
2022-10-23T01:10:13.635Z,14.60
2022-10-23T01:13:00.425Z,14.30
2022-10-23T01:15:45.883Z,14.40
2022-10-23T01:18:19.648Z,13.80
2022-10-23T01:21:28.988Z,14.50
2022-10-23T01:24:37.192Z,13.60
2022-10-23T01:27:26.768Z,13.60
2022-10-23T01:30:16.765Z,13.60
2022-10-23T01:32:48.172Z,13.80
2022-10-23T01:35:19.894Z,13.60
2022-10-23T01:38:06.370Z,14.50
2022-10-23T01:40:44.696Z,14.50
2022-10-23T01:43:18.204Z,14.90
2022-10-23T01:48:28.047Z,13.40
2022-10-23T01:51:00.241Z,12.80
2022-10-23T01:53:32.212Z,13.40
2022-10-23T01:56:04.216Z,12.00
2022-10-23T01:58:34.795Z,12.60
2022-10-23T02:01:06.617Z,12.50
2022-10-23T02:03:37.659Z,12.20
2022-10-23T02:06:06.459Z,14.00
2022-10-23T02:08:34.958Z,13.00
2022-10-23T02:11:09.142Z,13.70
2022-10-23T02:13:44.174Z,13.00
2022-10-23T02:16:38.710Z,12.90
2022-10-23T02:19:14.200Z,12.80
2022-10-23T02:21:50.375Z,13.50
2022-10-23T02:24:25.602Z,12.80
2022-10-23T02:26:57.398Z,12.50
2022-10-23T02:29:33.987Z,13.50
2022-10-23T02:32:02.590Z,13.10
2022-10-23T02:34:30.658Z,13.50
2022-10-23T02:36:59.178Z,13.70
2022-10-23T02:39:28.306Z,12.80
2022-10-23T02:42:28.910Z,13.10
2022-10-23T02:45:07.389Z,13.00
2022-10-23T02:47:50.554Z,13.80
2022-10-23T02:50:28.000Z,13.10
2022-10-23T02:53:21.234Z,13.30
2022-10-23T02:55:55.318Z,12.80
2022-10-23T02:58:49.682Z,12.70
2022-10-23T03:01:22.728Z,13.80
2022-10-23T03:03:55.414Z,13.40
2022-10-23T03:06:24.471Z,14.10
2022-10-23T03:09:02.166Z,12.60
2022-10-23T03:11:30.279Z,13.90
2022-10-23T03:13:58.922Z,13.00
2022-10-23T03:16:27.837Z,13.50
2022-10-23T03:18:56.290Z,12.90
2022-10-23T03:21:24.517Z,13.00
2022-10-23T03:23:54.167Z,12.60
2022-10-23T03:26:29.098Z,12.80
2022-10-23T03:28:57.163Z,12.70
2022-10-23T03:31:25.862Z,13.30
2022-10-23T03:33:57.099Z,13.40
2022-10-23T03:36:25.233Z,13.40
2022-10-23T03:38:53.712Z,13.60
2022-10-23T03:41:22.174Z,13.10
2022-10-23T03:43:50.298Z,13.60
2022-10-23T03:46:18.670Z,13.70
2022-10-23T03:48:51.248Z,14.10
2022-10-23T03:51:19.303Z,14.00
2022-10-23T03:53:47.363Z,14.80
2022-10-23T03:56:17.263Z,15.90
2022-10-23T03:58:45.392Z,16.80
2022-10-23T04:01:14.401Z,17.40
2022-10-23T04:03:42.507Z,17.20
2022-10-23T04:06:10.602Z,19.00
2022-10-23T04:08:39.173Z,18.70
2022-10-23T04:11:13.954Z,19.20
2022-10-23T04:13:48.079Z,17.70
2022-10-23T04:16:16.534Z,18.70
2022-10-23T04:18:47.731Z,17.90
2022-10-23T04:21:16.533Z,18.70
2022-10-23T04:23:44.990Z,19.50
2022-10-23T04:26:15.642Z,17.50
2022-10-23T04:28:43.737Z,18.70
2022-10-23T04:31:12.208Z,17.00
2022-10-23T04:33:42.717Z,18.60
2022-10-23T04:36:10.991Z,18.40
2022-10-23T04:38:41.230Z,18.20
2022-10-23T04:41:09.894Z,17.30
2022-10-23T04:43:37.923Z,19.90
2022-10-23T04:46:06.537Z,22.20
2022-10-23T04:48:35.203Z,21.00
2022-10-23T04:51:21.419Z,21.30
2022-10-23T04:53:56.125Z,19.60
2022-10-23T04:56:38.485Z,21.90
2022-10-23T04:59:13.454Z,21.50
2022-10-23T05:01:42.261Z,22.70
2022-10-23T05:04:11.041Z,22.70
2022-10-23T05:06:59.073Z,23.30
2022-10-23T05:09:45.512Z,23.10
2022-10-23T05:12:25.562Z,21.80
2022-10-23T05:14:54.498Z,22.90
2022-10-23T05:17:32.402Z,22.70
2022-10-23T05:20:03.341Z,23.20
2022-10-23T05:22:35.505Z,24.20
2022-10-23T05:25:05.909Z,23.40
2022-10-23T05:27:34.845Z,23.40
2022-10-23T05:30:04.977Z,23.40
2022-10-23T05:32:37.406Z,25.80
2022-10-23T05:35:17.332Z,23.60
2022-10-23T05:37:50.301Z,24.60
2022-10-23T05:40:22.114Z,23.00
2022-10-23T05:42:53.333Z,21.70
2022-10-23T05:45:29.409Z,21.10
2022-10-23T05:48:33.689Z,23.30
2022-10-23T05:51:23.344Z,21.10
2022-10-23T05:53:59.897Z,21.00
2022-10-23T05:56:38.515Z,24.60
2022-10-23T05:59:11.758Z,23.10
2022-10-23T06:01:50.483Z,23.50
2022-10-23T06:04:36.786Z,25.20
2022-10-23T06:07:35.751Z,24.90
2022-10-23T06:10:06.521Z,24.40
2022-10-23T06:12:37.128Z,19.50
2022-10-23T06:15:05.965Z,21.40
2022-10-23T06:18:18.305Z,21.40
2022-10-23T06:21:02.226Z,22.70
2022-10-23T06:23:32.548Z,21.40
2022-10-23T06:26:23.402Z,21.70
2022-10-23T06:29:11.922Z,21.80
2022-10-23T06:31:42.990Z,20.30
2022-10-23T06:34:12.362Z,21.60
2022-10-23T06:36:40.734Z,21.10
2022-10-23T06:39:26.232Z,22.70
2022-10-23T06:42:11.279Z,24.70
2022-10-23T06:44:57.991Z,23.00
2022-10-23T06:47:44.929Z,17.80
2022-10-23T06:50:16.078Z,20.90
2022-10-23T06:52:47.613Z,18.90
2022-10-23T06:55:19.304Z,20.40
2022-10-23T06:57:47.851Z,20.00
2022-10-23T07:00:16.166Z,19.30
2022-10-23T07:02:51.007Z,21.10
2022-10-23T07:05:20.538Z,21.40
2022-10-23T07:07:49.006Z,20.20
2022-10-23T07:10:22.430Z,22.00
2022-10-23T07:13:00.926Z,21.30
2022-10-23T07:15:47.210Z,23.70
2022-10-23T07:18:17.318Z,25.00
2022-10-23T07:21:14.464Z,24.20
2022-10-23T07:23:43.362Z,23.30
2022-10-23T07:26:15.589Z,22.30
2022-10-23T07:28:46.474Z,23.40
2022-10-23T07:31:15.960Z,22.70
2022-10-23T07:34:05.391Z,24.60
2022-10-23T07:36:33.630Z,21.70
2022-10-23T07:39:01.833Z,24.10
2022-10-23T07:41:30.286Z,23.70
2022-10-23T07:43:58.740Z,22.40
2022-10-23T07:46:27.083Z,21.50
2022-10-23T07:48:55.314Z,23.90
2022-10-23T07:51:23.553Z,22.90
2022-10-23T07:53:56.865Z,20.80
2022-10-23T07:57:03.461Z,21.50
2022-10-23T07:59:45.714Z,20.10
2022-10-23T08:02:15.775Z,20.30
2022-10-23T08:04:44.794Z,22.70
2022-10-23T08:07:23.777Z,22.10
2022-10-23T08:09:53.656Z,24.00
2022-10-23T08:12:22.025Z,21.90
2022-10-23T08:14:50.336Z,20.90
2022-10-23T08:17:25.074Z,20.60
2022-10-23T08:20:13.865Z,21.30
2022-10-23T08:22:43.793Z,19.90
2022-10-23T08:25:12.388Z,21.80
2022-10-23T08:27:41.673Z,22.30
2022-10-23T08:30:10.865Z,16.50
2022-10-23T08:32:39.200Z,16.40
2022-10-23T08:35:08.184Z,19.00
2022-10-23T08:37:37.800Z,20.40
2022-10-23T08:40:07.384Z,19.60
2022-10-23T08:43:05.500Z,17.40
2022-10-23T08:45:40.752Z,18.40
2022-10-23T08:48:30.464Z,17.60
2022-10-23T08:51:39.808Z,18.50
2022-10-23T08:54:16.067Z,19.80
2022-10-23T08:57:10.524Z,21.90
2022-10-23T09:02:23.365Z,17.80
2022-10-23T09:04:53.925Z,16.80
2022-10-23T09:07:37.401Z,18.00
2022-10-23T09:10:17.469Z,17.70
2022-10-23T09:12:46.210Z,18.00
2022-10-23T09:15:35.285Z,18.60
2022-10-23T09:18:14.133Z,20.00
2022-10-23T09:20:45.777Z,22.10
2022-10-23T09:23:23.310Z,21.20
2022-10-23T09:25:57.148Z,18.90
2022-10-23T09:28:31.240Z,22.60
2022-10-23T09:31:19.314Z,18.30
2022-10-23T09:33:56.240Z,20.70
2022-10-23T09:36:26.004Z,21.40
2022-10-23T09:38:56.356Z,18.20
2022-10-23T09:41:43.162Z,22.50
2022-10-23T09:44:17.076Z,25.50
2022-10-23T09:46:55.584Z,22.70
2022-10-23T09:49:32.534Z,21.70
2022-10-23T09:52:10.179Z,23.20
2022-10-23T09:54:47.087Z,22.40
2022-10-23T09:57:51.024Z,23.90
2022-10-23T10:00:25.646Z,23.40
2022-10-23T10:03:02.851Z,22.90
2022-10-23T10:05:42.492Z,27.80
2022-10-23T10:08:38.080Z,29.50
2022-10-23T10:11:23.133Z,30.60
2022-10-23T10:13:54.300Z,29.10
2022-10-23T10:19:15.490Z,25.30
2022-10-23T10:22:12.204Z,27.90
2022-10-23T10:24:49.544Z,20.80
2022-10-23T10:27:38.576Z,24.60
2022-10-23T10:30:24.044Z,25.20
2022-10-23T10:33:02.404Z,20.90
2022-10-23T10:35:33.393Z,23.90
2022-10-23T10:38:21.313Z,24.70
2022-10-23T10:41:14.621Z,27.50
2022-10-23T10:43:58.179Z,28.60
2022-10-23T10:46:38.463Z,30.00
2022-10-23T10:49:13.069Z,32.00
2022-10-23T10:52:16.573Z,27.10
2022-10-23T10:54:52.800Z,24.20
2022-10-23T10:57:35.185Z,24.50
2022-10-23T11:00:15.755Z,22.50
2022-10-23T11:02:49.060Z,22.10
2022-10-23T11:05:17.472Z,26.20
2022-10-23T11:08:14.695Z,31.60
2022-10-23T11:10:48.483Z,24.40
2022-10-23T11:13:35.792Z,20.90
2022-10-23T11:16:09.141Z,20.90
2022-10-23T11:18:40.904Z,20.80
2022-10-23T11:21:38.204Z,21.80
2022-10-23T11:24:36.580Z,21.20
2022-10-23T11:27:26.465Z,21.80
2022-10-23T11:30:35.266Z,20.10
2022-10-23T11:33:28.664Z,22.60
2022-10-23T11:36:16.799Z,22.20
2022-10-23T11:38:50.994Z,21.00
2022-10-23T11:41:27.438Z,21.20
2022-10-23T11:44:03.960Z,22.10
2022-10-23T11:46:39.200Z,22.10
2022-10-23T11:49:21.170Z,22.00
2022-10-23T11:52:00.737Z,23.40
2022-10-23T11:54:29.832Z,22.70
2022-10-23T11:57:10.339Z,23.40
2022-10-23T11:59:45.417Z,23.10
2022-10-23T12:02:27.765Z,23.00
2022-10-23T12:04:56.576Z,22.30
2022-10-23T12:07:32.672Z,20.80
2022-10-23T12:10:00.905Z,22.50
2022-10-23T12:12:43.510Z,21.10
2022-10-23T12:15:11.749Z,21.60
2022-10-23T12:17:41.712Z,20.50
2022-10-23T12:20:13.448Z,21.70
2022-10-23T12:22:59.577Z,23.10
2022-10-23T12:25:46.401Z,21.00
2022-10-23T12:28:28.637Z,12.40
2022-10-23T12:31:09.494Z,5.70
2022-10-23T12:33:52.981Z,4.70
2022-10-23T12:36:48.872Z,4.50
2022-10-23T12:39:29.565Z,4.20
2022-10-23T12:42:00.682Z,4.10
2022-10-23T12:44:31.477Z,56.50
2022-10-23T12:47:02.700Z,6.60
2022-10-23T12:49:33.840Z,4.40
2022-10-23T12:52:03.601Z,4.20
2022-10-23T12:54:34.129Z,3.70
2022-10-23T12:57:02.538Z,4.30
2022-10-23T12:59:38.880Z,4.60
2022-10-23T13:02:28.490Z,5.00
2022-10-23T13:05:01.241Z,5.20
2022-10-23T13:07:34.633Z,5.00
2022-10-23T13:10:05.834Z,5.40
2022-10-23T13:12:40.947Z,5.40
2022-10-23T13:15:11.014Z,4.80
2022-10-23T13:17:44.725Z,4.30
2022-10-23T13:20:26.827Z,5.30
2022-10-23T13:23:10.357Z,6.30
2022-10-23T13:25:39.905Z,6.40
2022-10-23T13:28:08.324Z,6.50
2022-10-23T13:30:42.289Z,6.20
2022-10-23T13:33:24.245Z,5.40
2022-10-23T13:36:00.541Z,5.10
2022-10-23T13:38:37.011Z,4.00
2022-10-23T13:41:13.738Z,3.50
2022-10-23T13:43:43.201Z,3.70
2022-10-23T13:46:22.514Z,3.60
2022-10-23T13:48:50.773Z,3.50
2022-10-23T13:51:28.189Z,4.00
2022-10-23T13:53:57.765Z,3.40
2022-10-23T13:56:27.809Z,4.30
2022-10-23T13:58:56.233Z,4.10
2022-10-23T14:01:33.991Z,5.10
2022-10-23T14:04:04.577Z,3.50
2022-10-23T14:06:34.097Z,3.40
2022-10-23T14:09:02.541Z,3.50
2022-10-23T14:11:32.454Z,3.40
2022-10-23T14:14:00.911Z,3.40
2022-10-23T14:16:29.598Z,3.70
2022-10-23T14:18:57.925Z,3.30
2022-10-23T14:21:26.268Z,3.10
2022-10-23T14:23:54.778Z,3.50
2022-10-23T14:26:26.069Z,3.60
2022-10-23T14:28:56.891Z,3.50
2022-10-23T14:31:27.328Z,3.70
2022-10-23T14:33:58.925Z,3.70
2022-10-23T14:36:34.381Z,3.80
2022-10-23T14:39:11.913Z,3.50
2022-10-23T14:41:40.833Z,3.50
2022-10-23T14:44:09.044Z,3.00
2022-10-23T14:46:38.530Z,3.90
2022-10-23T14:49:07.227Z,3.30
2022-10-23T14:51:36.037Z,2.90
2022-10-23T14:54:06.307Z,2.90
2022-10-23T14:56:37.750Z,3.10
2022-10-23T14:59:06.742Z,3.10
2022-10-23T15:01:43.523Z,0.60
2022-10-23T15:04:16.210Z,4.90
2022-10-23T15:06:46.472Z,3.60
2022-10-23T15:09:15.848Z,3.30
2022-10-23T15:11:44.131Z,3.80
2022-10-23T15:14:13.064Z,4.00
2022-10-23T15:16:42.306Z,3.90
2022-10-23T15:19:15.408Z,4.20
2022-10-23T15:21:48.141Z,4.80
2022-10-23T15:24:17.535Z,3.90
2022-10-23T15:26:45.816Z,3.60
2022-10-23T15:29:15.175Z,3.70
2022-10-23T15:31:47.192Z,3.70
2022-10-23T15:34:21.647Z,3.90
2022-10-23T15:36:51.253Z,3.60
2022-10-23T15:39:26.356Z,4.00
2022-10-23T15:41:57.245Z,4.40
2022-10-23T15:44:28.357Z,4.60
2022-10-23T15:46:57.556Z,4.60
2022-10-23T15:49:27.609Z,4.90
2022-10-23T15:51:56.965Z,5.20
2022-10-23T15:55:03.077Z,5.00
2022-10-23T15:57:31.468Z,5.20
2022-10-23T15:59:59.782Z,5.00
2022-10-23T16:02:28.201Z,5.10
2022-10-23T16:04:56.672Z,5.60
2022-10-23T16:07:25.288Z,8.40
2022-10-23T16:09:54.204Z,11.60
2022-10-23T16:12:22.595Z,9.20
2022-10-23T16:14:51.986Z,7.30
2022-10-23T16:17:20.303Z,6.80
2022-10-23T16:19:48.551Z,9.90
2022-10-23T16:22:17.637Z,12.70
2022-10-23T16:24:45.851Z,10.50
2022-10-23T16:27:14.178Z,8.60
2022-10-23T16:29:42.453Z,7.80
2022-10-23T16:32:10.938Z,8.80
2022-10-23T16:34:39.266Z,11.20
2022-10-23T16:37:07.526Z,9.70
2022-10-23T16:39:59.977Z,12.80
2022-10-23T16:42:34.428Z,11.90
2022-10-23T16:45:22.309Z,19.10
2022-10-23T16:47:50.552Z,17.10
2022-10-23T16:50:18.785Z,18.70
2022-10-23T16:52:48.351Z,19.70
2022-10-23T16:55:18.356Z,21.40
2022-10-23T16:57:46.800Z,20.80
2022-10-23T17:00:15.988Z,22.80
2022-10-23T17:02:44.512Z,24.10
2022-10-23T17:05:13.201Z,22.00
2022-10-23T17:07:41.699Z,22.50
2022-10-23T17:10:10.272Z,24.50
2022-10-23T17:12:39.037Z,46.20
2022-10-23T17:15:08.248Z,68.10
2022-10-23T17:17:36.645Z,32.80
2022-10-23T17:20:05.193Z,31.10
2022-10-23T17:22:35.714Z,25.40
2022-10-23T17:25:04.265Z,25.00
2022-10-23T17:27:32.710Z,24.40
2022-10-23T17:30:01.001Z,24.00
2022-10-23T17:32:29.393Z,23.90
2022-10-23T17:34:57.704Z,24.80
2022-10-23T17:37:26.540Z,24.60
2022-10-23T17:39:55.807Z,23.90
2022-10-23T17:42:25.300Z,28.10
2022-10-23T17:44:54.284Z,26.70
2022-10-23T17:47:23.020Z,22.90
2022-10-23T17:49:51.328Z,26.20
2022-10-23T17:52:20.068Z,26.50
2022-10-23T17:54:52.572Z,25.30
2022-10-23T17:57:20.826Z,25.40
2022-10-23T17:59:49.061Z,24.50
2022-10-23T18:02:17.408Z,23.80
2022-10-23T18:04:45.630Z,23.70
2022-10-23T18:07:15.026Z,21.30
2022-10-23T18:09:45.639Z,21.90
2022-10-23T18:12:14.457Z,15.90
2022-10-23T18:14:43.293Z,16.30
2022-10-23T18:17:11.804Z,20.20
2022-10-23T18:19:40.345Z,19.10
2022-10-23T18:22:08.604Z,21.00
2022-10-23T18:24:38.124Z,18.20
2022-10-23T18:27:07.118Z,19.10
2022-10-23T18:29:35.341Z,20.00
2022-10-23T18:32:03.833Z,19.30
2022-10-23T18:34:32.160Z,18.40
2022-10-23T18:37:01.092Z,17.80
2022-10-23T18:39:29.322Z,18.10
2022-10-23T18:41:58.713Z,19.20
2022-10-23T18:44:29.354Z,18.90
2022-10-23T18:46:59.001Z,21.20
2022-10-23T18:49:27.416Z,19.80
2022-10-23T18:51:55.797Z,19.20
2022-10-23T18:54:24.557Z,19.00
2022-10-23T18:56:52.743Z,19.00
2022-10-23T18:59:21.885Z,18.40
2022-10-23T19:01:50.521Z,16.70
2022-10-23T19:04:19.428Z,18.70
2022-10-23T19:06:50.259Z,17.00
2022-10-23T19:09:19.057Z,18.00
2022-10-23T19:11:47.671Z,18.00
2022-10-23T19:14:16.064Z,17.90
2022-10-23T19:17:04.238Z,17.60
2022-10-23T19:19:40.118Z,18.60
2022-10-23T19:22:10.005Z,19.00
2022-10-23T19:24:49.043Z,19.10
2022-10-23T19:27:19.449Z,19.80
2022-10-23T19:29:50.305Z,20.70
2022-10-23T19:32:18.513Z,20.20
2022-10-23T19:34:46.830Z,20.40
2022-10-23T19:37:16.102Z,19.50
2022-10-23T19:39:44.353Z,22.00
2022-10-23T19:42:13.189Z,27.30
2022-10-23T19:44:41.281Z,21.30
2022-10-23T19:47:09.569Z,19.80
2022-10-23T19:49:38.468Z,19.70
2022-10-23T19:52:06.846Z,20.50
2022-10-23T19:54:34.998Z,21.00
2022-10-23T19:57:03.413Z,20.90
2022-10-23T19:59:31.481Z,19.70
2022-10-23T20:01:59.831Z,19.70
2022-10-23T20:04:29.105Z,19.00
2022-10-23T20:06:57.484Z,19.10
2022-10-23T20:09:25.765Z,19.90
2022-10-23T20:11:54.002Z,20.00
2022-10-23T20:14:22.178Z,19.20
2022-10-23T20:16:54.953Z,21.10
2022-10-23T20:19:24.130Z,20.30
2022-10-23T20:21:52.285Z,20.20
2022-10-23T20:24:21.573Z,20.00
2022-10-23T20:26:54.824Z,20.10
2022-10-23T20:29:24.986Z,18.20
2022-10-23T20:31:53.214Z,18.30
2022-10-23T20:34:21.487Z,18.00
2022-10-23T20:36:50.012Z,19.40
2022-10-23T20:39:27.133Z,19.20
2022-10-23T20:41:56.481Z,21.00
2022-10-23T20:44:24.932Z,25.00
2022-10-23T20:46:53.556Z,32.30
2022-10-23T20:49:22.744Z,23.60
2022-10-23T20:51:56.168Z,21.30
2022-10-23T20:54:28.999Z,19.70
2022-10-23T20:56:57.272Z,20.50
2022-10-23T20:59:25.559Z,19.60
2022-10-23T21:01:55.594Z,19.20
2022-10-23T21:04:28.078Z,19.80
2022-10-23T21:07:09.599Z,19.70
2022-10-23T21:09:40.215Z,19.60
2022-10-23T21:12:09.092Z,18.20
2022-10-23T21:14:37.415Z,19.10
2022-10-23T21:17:08.540Z,19.00
2022-10-23T21:19:37.001Z,17.60
2022-10-23T21:22:05.407Z,18.70
2022-10-23T21:24:33.851Z,18.30
2022-10-23T21:27:02.357Z,18.40
2022-10-23T21:29:30.939Z,18.20
2022-10-23T21:32:01.651Z,18.00
2022-10-23T21:34:30.475Z,17.60
2022-10-23T21:37:14.836Z,18.00
2022-10-23T21:39:44.823Z,18.30
2022-10-23T21:42:14.582Z,18.10
2022-10-23T21:44:42.749Z,18.40
2022-10-23T21:47:11.466Z,18.40
2022-10-23T21:49:39.703Z,18.80
2022-10-23T21:52:08.483Z,18.40
2022-10-23T21:54:37.338Z,18.40
2022-10-23T21:57:12.378Z,18.10
2022-10-23T21:59:41.160Z,18.60
2022-10-23T22:02:09.627Z,19.00
2022-10-23T22:04:39.091Z,19.20
2022-10-23T22:07:07.901Z,19.20
2022-10-23T22:09:36.208Z,20.30
2022-10-23T22:12:04.426Z,19.00
2022-10-23T22:14:32.705Z,20.20
2022-10-23T22:17:00.826Z,20.90
2022-10-23T22:19:28.937Z,19.80
2022-10-23T22:21:57.140Z,20.20
2022-10-23T22:24:25.273Z,19.70
2022-10-23T22:26:56.091Z,20.40
2022-10-23T22:29:27.452Z,20.10
2022-10-23T22:31:56.818Z,20.80
2022-10-23T22:34:48.265Z,21.10
2022-10-23T22:37:16.283Z,20.50
2022-10-23T22:39:44.468Z,20.70
2022-10-23T22:42:12.814Z,21.60
2022-10-23T22:44:41.223Z,21.10
2022-10-23T22:47:09.338Z,21.20
2022-10-23T22:49:38.492Z,21.80
2022-10-23T22:52:06.795Z,21.90
2022-10-23T22:54:34.959Z,21.30
2022-10-23T22:57:03.110Z,21.70
2022-10-23T22:59:31.274Z,21.40
2022-10-23T23:01:59.394Z,22.10
2022-10-23T23:04:43.308Z,22.80
2022-10-23T23:07:13.039Z,21.50
2022-10-23T23:09:44.531Z,21.90
2022-10-23T23:12:14.380Z,22.70
2022-10-23T23:14:43.041Z,23.40
2022-10-23T23:17:12.034Z,22.80
2022-10-23T23:19:40.192Z,23.40
2022-10-23T23:22:08.524Z,22.40
2022-10-23T23:24:37.053Z,22.50
2022-10-23T23:27:05.234Z,22.70
2022-10-23T23:29:33.535Z,22.70
2022-10-23T23:32:01.715Z,22.70
2022-10-23T23:34:30.003Z,23.10
2022-10-23T23:36:58.485Z,22.60
2022-10-23T23:39:28.607Z,22.10
2022-10-23T23:41:56.881Z,21.50
2022-10-23T23:44:25.024Z,21.00
2022-10-23T23:46:53.200Z,22.20
2022-10-23T23:49:21.724Z,22.10
2022-10-23T23:51:49.892Z,22.90
2022-10-23T23:54:18.355Z,22.00
2022-10-23T23:56:46.440Z,21.40
2022-10-23T23:59:15.131Z,21.50
